Bourbon Artemis — XCGR3 — position and weather

sailwx.info

Track history (hours):
 
Tides and Currents Weather Stations Pressure Air Temp Water Temp Dewpoint Dewpoint Depression Visibility Wind Speed Wind Dir Waves Ship Positions

Bourbon Artemis

Last reported at 2018-Jun-17 21:56 UTC. Time now 2018-Jun-17 22:09 UTC.
Position N 23°12' W 106°19'.

Length 68 m; draft 5 m.

Type: Tug. MMSI: 345010037.

Date/timePositionNaut miles runAvg speedWind from/ knotsBaromVisibWave heightAir tempDewpointWater temp
2018-Jun-17 21:56N 23°12' W 106°19'819.5
2018-Jun-17 21:30N 23°15' W 106°27'0 0.0
2018-Jun-17 19:40N 23°15' W 106°27'0 0.0
2018-Jun-17 19:30N 23°15' W 106°27'0 0.0
2018-Jun-17 17:48N 23°15' W 106°27'0 0.0
2018-Jun-17 17:30N 23°15' W 106°27'0 0.0
2018-Jun-17 17:00N 23°15' W 106°27'0 0.0
2018-Jun-17 16:29N 23°15' W 106°27'0 0.0
2018-Jun-17 15:58N 23°15' W 106°27'0 0.0
2018-Jun-17 15:28N 23°15' W 106°27'0 0.0
2018-Jun-17 14:58N 23°15' W 106°27'0 0.0
2018-Jun-17 12:29N 23°15' W 106°27'0 0.0
2018-Jun-17 12:00N 23°15' W 106°27'0 0.0
2018-Jun-17 11:29N 23°15' W 106°27'1 2.8
2018-Jun-17 10:59N 23°15' W 106°26'0 0.0
2018-Jun-17 10:29N 23°15' W 106°26'1 2.7
2018-Jun-17 10:00N 23°14' W 106°27'0 0.8
2018-Jun-17 09:30N 23°15' W 106°27'0 0.0
2018-Jun-17 08:58N 23°15' W 106°27'0 0.0
2018-Jun-17 08:30N 23°15' W 106°27'0 0.1
2018-Jun-17 07:58N 23°15' W 106°27'1 2.8
2018-Jun-17 07:29N 23°15' W 106°26'0 0.0
2018-Jun-17 06:58N 23°15' W 106°26'3 5.5
2018-Jun-17 06:30N 23°13' W 106°25'1 2.1
2018-Jun-17 05:59N 23°12' W 106°26'1 1.5
2018-Jun-17 05:30N 23°13' W 106°25'3 5.4
2018-Jun-17 04:59N 23°15' W 106°27'2 4.5
2018-Jun-17 04:30N 23°17' W 106°28'3 5.0
2018-Jun-17 04:00N 23°15' W 106°27'0 0.1
2018-Jun-17 03:29N 23°15' W 106°27'1 1.0
2018-Jun-17 02:59N 23°15' W 106°27'0 0.8
2018-Jun-17 02:30N 23°15' W 106°27'0 0.3
2018-Jun-17 02:00N 23°15' W 106°27'0 0.0
2018-Jun-17 01:29N 23°15' W 106°27'0 0.0
2018-Jun-17 00:58N 23°15' W 106°27'0 0.0
2018-Jun-17 00:29N 23°15' W 106°27'0 0.0
2018-Jun-16 23:57N 23°15' W 106°27'0 0.4
2018-Jun-16 23:29N 23°15' W 106°27'2 5.0
2018-Jun-16 23:00N 23°13' W 106°25'0 0.0
2018-Jun-16 22:28N 23°13' W 106°25'0 0.0
2018-Jun-16 21:58N 23°13' W 106°25'3 2.6
2018-Jun-16 20:58N 23°15' W 106°27'0 0.1
2018-Jun-16 20:30N 23°15' W 106°27'0 0.2
2018-Jun-16 19:58N 23°15' W 106°27'0 0.1
2018-Jun-16 19:30N 23°15' W 106°27'0 0.0
2018-Jun-16 18:59N 23°15' W 106°27'0 0.5
2018-Jun-16 18:28N 23°15' W 106°27'0 0.5
2018-Jun-16 18:00N 23°15' W 106°27'4 7.7
2018-Jun-16 17:30N 23°18' W 106°28'1 2.1
2018-Jun-16 17:00N 23°18' W 106°30'0 0.0
2018-Jun-16 16:29N 23°18' W 106°30'0 0.0
2018-Jun-16 15:58N 23°18' W 106°30'4 8.5
2018-Jun-16 15:28N 23°15' W 106°27'0 0.0
2018-Jun-16 14:59N 23°15' W 106°27'0 0.0
2018-Jun-16 09:17N 23°15' W 106°27'0 0.0
2018-Jun-16 08:58N 23°15' W 106°27'0 0.0
2018-Jun-16 08:28N 23°15' W 106°27'0 0.0
2018-Jun-16 06:45N 23°15' W 106°27'0 0.0
2018-Jun-16 06:29N 23°15' W 106°27'0 0.0
2018-Jun-16 06:00N 23°15' W 106°27'0 0.0
2018-Jun-16 05:28N 23°15' W 106°27'0 0.0
2018-Jun-16 04:58N 23°15' W 106°27'1 2.1
2018-Jun-16 04:29N 23°15' W 106°28'0 0.0
2018-Jun-16 03:58N 23°15' W 106°28'0 0.0
2018-Jun-16 03:30N 23°15' W 106°28'0 0.0
2018-Jun-16 02:58N 23°15' W 106°28'0 0.0
2018-Jun-16 02:30N 23°15' W 106°28'0 0.0
2018-Jun-16 01:59N 23°15' W 106°28'0 0.0
2018-Jun-16 01:30N 23°15' W 106°28'0 0.0
2018-Jun-16 00:59N 23°15' W 106°28'0 0.0
2018-Jun-16 00:30N 23°15' W 106°28'2 3.8
2018-Jun-15 23:59N 23°15' W 106°26'0 0.8
2018-Jun-15 23:28N 23°15' W 106°25'2 3.7
2018-Jun-15 23:00N 23°15' W 106°27'0 0.0
2018-Jun-15 22:29N 23°15' W 106°27'0 0.0
2018-Jun-15 22:00N 23°15' W 106°27'0 0.0
2018-Jun-15 21:28N 23°15' W 106°27'0 0.1
2018-Jun-15 21:00N 23°15' W 106°27'47911.0
2018-Jun-14 01:28N 22°16' W 097°52'0 0.0
2018-Jun-14 01:00N 22°16' W 097°52'0 0.0
2018-Jun-14 00:30N 22°16' W 097°52'0 0.0
2018-Jun-13 23:58N 22°16' W 097°52'3 5.4
2018-Jun-13 23:30N 22°13' W 097°51'0 0.0
2018-Jun-13 22:59N 22°13' W 097°51'0 0.0
2018-Jun-13 22:28N 22°13' W 097°51'0 0.0
2018-Jun-13 21:58N 22°13' W 097°51'0 0.0
2018-Jun-13 21:29N 22°13' W 097°51'0 0.0
2018-Jun-13 20:58N 22°13' W 097°51'0 0.0
2018-Jun-13 20:30N 22°13' W 097°51'0 0.0
2018-Jun-13 20:00N 22°13' W 097°51'0 0.0
2018-Jun-13 19:29N 22°13' W 097°51'0 0.0
2018-Jun-13 18:58N 22°13' W 097°51'0 0.0
2018-Jun-13 18:29N 22°13' W 097°51'0 0.0
2018-Jun-13 17:58N 22°13' W 097°51'0 0.0
2018-Jun-13 17:30N 22°13' W 097°51'0 0.0
2018-Jun-13 16:58N 22°13' W 097°51'0 0.0
2018-Jun-13 16:30N 22°13' W 097°51'0 0.0
2018-Jun-13 15:59N 22°13' W 097°51'0 0.0
2018-Jun-13 15:29N 22°13' W 097°51'0 0.0
2018-Jun-13 14:58N 22°13' W 097°51'0 0.3
2018-Jun-13 14:30N 22°13' W 097°51'0 0.1
2018-Jun-13 13:58N 22°13' W 097°51'0 0.0
2018-Jun-13 13:29N 22°13' W 097°51'3 0.2
2018-Jun-13 01:13N 22°16' W 097°51'1 4.3
2018-Jun-13 00:56N 22°15' W 097°52'0 0.1
2018-Jun-13 00:28N 22°15' W 097°52'2 1.2
2018-Jun-12 23:00N 22°16' W 097°51'2 4.0
2018-Jun-12 22:28N 22°14' W 097°51'0 0.0
2018-Jun-12 21:57N 22°14' W 097°51'0 0.0
2018-Jun-12 21:30N 22°14' W 097°51'0 0.0
2018-Jun-12 20:58N 22°14' W 097°51'1 0.9
2018-Jun-12 19:39N 22°13' W 097°51'1 8.0
2018-Jun-12 19:30N 22°14' W 097°51'2 0.4
2018-Jun-12 15:03N 22°15' W 097°52'111.9
2018-Jun-12 14:58N 22°14' W 097°52'1 2.1
2018-Jun-12 14:30N 22°13' W 097°51'0 0.0
2018-Jun-12 14:00N 22°13' W 097°51'0 0.0
2018-Jun-12 13:29N 22°13' W 097°51'0 0.1
2018-Jun-12 12:59N 22°13' W 097°51'2 0.2
2018-Jun-12 00:18N 22°15' W 097°52'2 6.3
2018-Jun-12 00:00N 22°13' W 097°51'0 0.4
2018-Jun-11 23:27N 22°13' W 097°51'0 0.0
2018-Jun-11 22:56N 22°13' W 097°51'0 0.0
2018-Jun-11 22:30N 22°13' W 097°51'0 0.0
2018-Jun-11 21:58N 22°13' W 097°51'0 0.0
2018-Jun-11 21:30N 22°13' W 097°51'0 0.0
2018-Jun-11 21:00N 22°13' W 097°51'0 0.0
2018-Jun-11 20:29N 22°13' W 097°51'0 0.2
2018-Jun-11 20:00N 22°13' W 097°51'0 0.2
2018-Jun-11 19:30N 22°13' W 097°51'0 0.0
2018-Jun-11 18:59N 22°13' W 097°51'0 0.0
2018-Jun-11 18:30N 22°13' W 097°51'0 0.0
2018-Jun-11 17:58N 22°13' W 097°51'0 0.4
2018-Jun-11 17:29N 22°13' W 097°51'1 1.2
2018-Jun-11 16:59N 22°13' W 097°51'1 1.2
2018-Jun-11 16:29N 22°13' W 097°51'0 0.0
2018-Jun-11 16:00N 22°13' W 097°51'0 0.0
2018-Jun-11 15:28N 22°13' W 097°51'0 0.0
2018-Jun-11 14:59N 22°13' W 097°51'0 0.0
2018-Jun-11 14:27N 22°13' W 097°51'0 0.0
2018-Jun-11 13:59N 22°13' W 097°51'0 0.4
2018-Jun-11 13:30N 22°13' W 097°51'0 0.1
2018-Jun-11 12:59N 22°13' W 097°51'2 0.1
2018-Jun-10 16:43N 22°15' W 097°52'2 0.2
2018-Jun-10 01:05N 22°17' W 097°51'111.9
2018-Jun-10 01:00N 22°17' W 097°50'2 3.1
2018-Jun-10 00:28N 22°18' W 097°49'0 0.0
2018-Jun-09 23:23N 22°18' W 097°49'0 0.0
2018-Jun-09 22:59N 22°18' W 097°49'  
Track history (hours):
 
Tides and Currents Weather Stations Pressure Air Temp Water Temp Dewpoint Dewpoint Depression Visibility Wind Speed Wind Dir Waves Ship Positions

Bourbon Artemis

Last reported at 2018-Jun-17 21:56 UTC. Time now 2018-Jun-17 22:09 UTC.
Position N 23°12' W 106°19'.

Length 68 m; draft 5 m.

Type: Tug. MMSI: 345010037.

Date/timePositionNaut miles runAvg speedWind from/ knotsBaromVisibWave heightAir tempDewpointWater temp
2018-Jun-17 21:56N 23°12' W 106°19'819.5
2018-Jun-17 21:30N 23°15' W 106°27'0 0.0
2018-Jun-17 19:40N 23°15' W 106°27'0 0.0
2018-Jun-17 19:30N 23°15' W 106°27'0 0.0
2018-Jun-17 17:48N 23°15' W 106°27'0 0.0
2018-Jun-17 17:30N 23°15' W 106°27'0 0.0
2018-Jun-17 17:00N 23°15' W 106°27'0 0.0
2018-Jun-17 16:29N 23°15' W 106°27'0 0.0
2018-Jun-17 15:58N 23°15' W 106°27'0 0.0
2018-Jun-17 15:28N 23°15' W 106°27'0 0.0
2018-Jun-17 14:58N 23°15' W 106°27'0 0.0
2018-Jun-17 12:29N 23°15' W 106°27'0 0.0
2018-Jun-17 12:00N 23°15' W 106°27'0 0.0
2018-Jun-17 11:29N 23°15' W 106°27'1 2.8
2018-Jun-17 10:59N 23°15' W 106°26'0 0.0
2018-Jun-17 10:29N 23°15' W 106°26'1 2.7
2018-Jun-17 10:00N 23°14' W 106°27'0 0.8
2018-Jun-17 09:30N 23°15' W 106°27'0 0.0
2018-Jun-17 08:58N 23°15' W 106°27'0 0.0
2018-Jun-17 08:30N 23°15' W 106°27'0 0.1
2018-Jun-17 07:58N 23°15' W 106°27'1 2.8
2018-Jun-17 07:29N 23°15' W 106°26'0 0.0
2018-Jun-17 06:58N 23°15' W 106°26'3 5.5
2018-Jun-17 06:30N 23°13' W 106°25'1 2.1
2018-Jun-17 05:59N 23°12' W 106°26'1 1.5
2018-Jun-17 05:30N 23°13' W 106°25'3 5.4
2018-Jun-17 04:59N 23°15' W 106°27'2 4.5
2018-Jun-17 04:30N 23°17' W 106°28'3 5.0
2018-Jun-17 04:00N 23°15' W 106°27'0 0.1
2018-Jun-17 03:29N 23°15' W 106°27'1 1.0
2018-Jun-17 02:59N 23°15' W 106°27'0 0.8
2018-Jun-17 02:30N 23°15' W 106°27'0 0.3
2018-Jun-17 02:00N 23°15' W 106°27'0 0.0
2018-Jun-17 01:29N 23°15' W 106°27'0 0.0
2018-Jun-17 00:58N 23°15' W 106°27'0 0.0
2018-Jun-17 00:29N 23°15' W 106°27'0 0.0
2018-Jun-16 23:57N 23°15' W 106°27'0 0.4
2018-Jun-16 23:29N 23°15' W 106°27'2 5.0
2018-Jun-16 23:00N 23°13' W 106°25'0 0.0
2018-Jun-16 22:28N 23°13' W 106°25'0 0.0
2018-Jun-16 21:58N 23°13' W 106°25'3 2.6
2018-Jun-16 20:58N 23°15' W 106°27'0 0.1
2018-Jun-16 20:30N 23°15' W 106°27'0 0.2
2018-Jun-16 19:58N 23°15' W 106°27'0 0.1
2018-Jun-16 19:30N 23°15' W 106°27'0 0.0
2018-Jun-16 18:59N 23°15' W 106°27'0 0.5
2018-Jun-16 18:28N 23°15' W 106°27'0 0.5
2018-Jun-16 18:00N 23°15' W 106°27'4 7.7
2018-Jun-16 17:30N 23°18' W 106°28'1 2.1
2018-Jun-16 17:00N 23°18' W 106°30'0 0.0
2018-Jun-16 16:29N 23°18' W 106°30'0 0.0
2018-Jun-16 15:58N 23°18' W 106°30'4 8.5
2018-Jun-16 15:28N 23°15' W 106°27'0 0.0
2018-Jun-16 14:59N 23°15' W 106°27'0 0.0
2018-Jun-16 09:17N 23°15' W 106°27'0 0.0
2018-Jun-16 08:58N 23°15' W 106°27'0 0.0
2018-Jun-16 08:28N 23°15' W 106°27'0 0.0
2018-Jun-16 06:45N 23°15' W 106°27'0 0.0
2018-Jun-16 06:29N 23°15' W 106°27'0 0.0
2018-Jun-16 06:00N 23°15' W 106°27'0 0.0
2018-Jun-16 05:28N 23°15' W 106°27'0 0.0
2018-Jun-16 04:58N 23°15' W 106°27'1 2.1
2018-Jun-16 04:29N 23°15' W 106°28'0 0.0
2018-Jun-16 03:58N 23°15' W 106°28'0 0.0
2018-Jun-16 03:30N 23°15' W 106°28'0 0.0
2018-Jun-16 02:58N 23°15' W 106°28'0 0.0
2018-Jun-16 02:30N 23°15' W 106°28'0 0.0
2018-Jun-16 01:59N 23°15' W 106°28'0 0.0
2018-Jun-16 01:30N 23°15' W 106°28'0 0.0
2018-Jun-16 00:59N 23°15' W 106°28'0 0.0
2018-Jun-16 00:30N 23°15' W 106°28'2 3.8
2018-Jun-15 23:59N 23°15' W 106°26'0 0.8
2018-Jun-15 23:28N 23°15' W 106°25'2 3.7
2018-Jun-15 23:00N 23°15' W 106°27'0 0.0
2018-Jun-15 22:29N 23°15' W 106°27'0 0.0
2018-Jun-15 22:00N 23°15' W 106°27'0 0.0
2018-Jun-15 21:28N 23°15' W 106°27'0 0.1
2018-Jun-15 21:00N 23°15' W 106°27'47911.0
2018-Jun-14 01:28N 22°16' W 097°52'0 0.0
2018-Jun-14 01:00N 22°16' W 097°52'0 0.0
2018-Jun-14 00:30N 22°16' W 097°52'0 0.0
2018-Jun-13 23:58N 22°16' W 097°52'3 5.4
2018-Jun-13 23:30N 22°13' W 097°51'0 0.0
2018-Jun-13 22:59N 22°13' W 097°51'0 0.0
2018-Jun-13 22:28N 22°13' W 097°51'0 0.0
2018-Jun-13 21:58N 22°13' W 097°51'0 0.0
2018-Jun-13 21:29N 22°13' W 097°51'0 0.0
2018-Jun-13 20:58N 22°13' W 097°51'0 0.0
2018-Jun-13 20:30N 22°13' W 097°51'0 0.0
2018-Jun-13 20:00N 22°13' W 097°51'0 0.0
2018-Jun-13 19:29N 22°13' W 097°51'0 0.0
2018-Jun-13 18:58N 22°13' W 097°51'0 0.0
2018-Jun-13 18:29N 22°13' W 097°51'0 0.0
2018-Jun-13 17:58N 22°13' W 097°51'0 0.0
2018-Jun-13 17:30N 22°13' W 097°51'0 0.0
2018-Jun-13 16:58N 22°13' W 097°51'0 0.0
2018-Jun-13 16:30N 22°13' W 097°51'0 0.0
2018-Jun-13 15:59N 22°13' W 097°51'0 0.0
2018-Jun-13 15:29N 22°13' W 097°51'0 0.0
2018-Jun-13 14:58N 22°13' W 097°51'0 0.3
2018-Jun-13 14:30N 22°13' W 097°51'0 0.1
2018-Jun-13 13:58N 22°13' W 097°51'0 0.0
2018-Jun-13 13:29N 22°13' W 097°51'3 0.2
2018-Jun-13 01:13N 22°16' W 097°51'1 4.3
2018-Jun-13 00:56N 22°15' W 097°52'0 0.1
2018-Jun-13 00:28N 22°15' W 097°52'2 1.2
2018-Jun-12 23:00N 22°16' W 097°51'2 4.0
2018-Jun-12 22:28N 22°14' W 097°51'0 0.0
2018-Jun-12 21:57N 22°14' W 097°51'0 0.0
2018-Jun-12 21:30N 22°14' W 097°51'0 0.0
2018-Jun-12 20:58N 22°14' W 097°51'1 0.9
2018-Jun-12 19:39N 22°13' W 097°51'1 8.0
2018-Jun-12 19:30N 22°14' W 097°51'2 0.4
2018-Jun-12 15:03N 22°15' W 097°52'111.9
2018-Jun-12 14:58N 22°14' W 097°52'1 2.1
2018-Jun-12 14:30N 22°13' W 097°51'0 0.0
2018-Jun-12 14:00N 22°13' W 097°51'0 0.0
2018-Jun-12 13:29N 22°13' W 097°51'0 0.1
2018-Jun-12 12:59N 22°13' W 097°51'2 0.2
2018-Jun-12 00:18N 22°15' W 097°52'2 6.3
2018-Jun-12 00:00N 22°13' W 097°51'0 0.4
2018-Jun-11 23:27N 22°13' W 097°51'0 0.0
2018-Jun-11 22:56N 22°13' W 097°51'0 0.0
2018-Jun-11 22:30N 22°13' W 097°51'0 0.0
2018-Jun-11 21:58N 22°13' W 097°51'0 0.0
2018-Jun-11 21:30N 22°13' W 097°51'0 0.0
2018-Jun-11 21:00N 22°13' W 097°51'0 0.0
2018-Jun-11 20:29N 22°13' W 097°51'0 0.2
2018-Jun-11 20:00N 22°13' W 097°51'0 0.2
2018-Jun-11 19:30N 22°13' W 097°51'0 0.0
2018-Jun-11 18:59N 22°13' W 097°51'0 0.0
2018-Jun-11 18:30N 22°13' W 097°51'0 0.0
2018-Jun-11 17:58N 22°13' W 097°51'0 0.4
2018-Jun-11 17:29N 22°13' W 097°51'1 1.2
2018-Jun-11 16:59N 22°13' W 097°51'1 1.2
2018-Jun-11 16:29N 22°13' W 097°51'0 0.0
2018-Jun-11 16:00N 22°13' W 097°51'0 0.0
2018-Jun-11 15:28N 22°13' W 097°51'0 0.0
2018-Jun-11 14:59N 22°13' W 097°51'0 0.0
2018-Jun-11 14:27N 22°13' W 097°51'0 0.0
2018-Jun-11 13:59N 22°13' W 097°51'0 0.4
2018-Jun-11 13:30N 22°13' W 097°51'0 0.1
2018-Jun-11 12:59N 22°13' W 097°51'2 0.1
2018-Jun-10 16:43N 22°15' W 097°52'2 0.2
2018-Jun-10 01:05N 22°17' W 097°51'111.9
2018-Jun-10 01:00N 22°17' W 097°50'2 3.1
2018-Jun-10 00:28N 22°18' W 097°49'0 0.0
2018-Jun-09 23:23N 22°18' W 097°49'0 0.0
2018-Jun-09 22:59N 22°18' W 097°49'  

Dump ship's entire track history